Terminal Aerodrome Forecast
Issued by NWS Charleston, WV

Current Version | Previous Version | Graphics & Text | Print | Product List | Glossary On
Versions: 1 2 3 4 5 6 7 8 9 10 11 12 13 14 15 16 17 18 19 20 21 22 23
000
FTUS41 KRLX 220500 RRA
TAFPKB
TAF
KPKB 220544Z 2206/2306 00000KT P6SM BKN110
     FM221000 20005KT P6SM -SHRA OVC060
     FM221200 26006KT P6SM OVC060
     FM221500 27009KT 5SM SHRA OVC040
     FM221700 28010G16KT P6SM BKN030
     FM222000 30012G19KT P6SM BKN035
     FM230400 30008KT P6SM SCT035=

USA.gov is the U.S. government's official web portal to all federal, state and local government web resources and services.